createdAt,value
2017-11-03T00:02:18.030Z,4.30
2017-11-03T00:04:45.481Z,4.20
2017-11-03T00:07:12.969Z,4.20
2017-11-03T00:09:41.189Z,4.10
2017-11-03T00:12:08.676Z,4.00
2017-11-03T00:14:36.153Z,3.90
2017-11-03T00:17:03.636Z,3.90
2017-11-03T00:19:31.117Z,3.80
2017-11-03T00:21:58.608Z,3.60
2017-11-03T00:24:26.079Z,3.60
2017-11-03T00:26:53.537Z,3.50
2017-11-03T00:29:21.067Z,3.30
2017-11-03T00:31:48.530Z,3.40
2017-11-03T00:34:16.004Z,3.30
2017-11-03T00:36:43.479Z,3.30
2017-11-03T00:39:11.724Z,3.40
2017-11-03T00:41:39.207Z,3.30
2017-11-03T00:44:06.663Z,3.50
2017-11-03T00:46:34.146Z,3.50
2017-11-03T00:49:01.601Z,3.60
2017-11-03T00:51:29.082Z,3.70
2017-11-03T00:53:56.579Z,3.80
2017-11-03T00:56:24.033Z,4.00
2017-11-03T00:58:51.537Z,4.00
2017-11-03T01:01:19.049Z,4.10
2017-11-03T01:03:46.530Z,4.20
2017-11-03T01:06:14.938Z,4.30
2017-11-03T01:08:42.431Z,4.30
2017-11-03T01:11:09.910Z,4.30
2017-11-03T01:13:37.377Z,4.30
2017-11-03T01:16:04.860Z,4.30
2017-11-03T01:18:32.323Z,4.30
2017-11-03T01:20:59.796Z,4.30
2017-11-03T01:23:27.277Z,4.20
2017-11-03T01:25:55.071Z,4.20
2017-11-03T01:28:22.516Z,4.30
2017-11-03T01:30:50.007Z,4.40
2017-11-03T01:33:18.258Z,4.40
2017-11-03T01:35:46.510Z,4.40
2017-11-03T01:38:14.026Z,4.40
2017-11-03T01:40:41.503Z,4.40
2017-11-03T01:43:08.984Z,4.40
2017-11-03T01:45:36.532Z,4.30
2017-11-03T01:48:03.999Z,4.30
2017-11-03T01:50:31.582Z,4.30
2017-11-03T01:52:59.824Z,4.50
2017-11-03T01:55:27.286Z,4.40
2017-11-03T01:57:54.766Z,4.40
2017-11-03T02:00:22.298Z,4.50
2017-11-03T02:02:49.788Z,4.50
2017-11-03T02:05:17.237Z,4.50
2017-11-03T02:07:44.730Z,4.50
2017-11-03T02:10:12.201Z,4.40
2017-11-03T02:12:39.685Z,4.50
2017-11-03T02:15:07.140Z,4.60
2017-11-03T02:17:35.037Z,4.60
2017-11-03T02:20:02.529Z,4.80
2017-11-03T02:22:30.034Z,4.80
2017-11-03T02:24:57.501Z,4.90
2017-11-03T02:27:24.967Z,4.90
2017-11-03T02:29:52.527Z,4.90
2017-11-03T02:32:19.982Z,4.80
2017-11-03T02:34:47.468Z,4.80
2017-11-03T02:37:15.714Z,4.80
2017-11-03T02:39:43.153Z,4.70
2017-11-03T02:42:10.627Z,4.90
2017-11-03T02:44:38.194Z,4.90
2017-11-03T02:47:05.681Z,4.90
2017-11-03T02:49:33.139Z,4.90
2017-11-03T02:52:00.642Z,4.80
2017-11-03T02:54:28.110Z,4.80
2017-11-03T02:56:55.571Z,4.90
2017-11-03T02:59:23.103Z,4.90
2017-11-03T03:01:50.564Z,4.90
2017-11-03T03:04:18.055Z,5.00
2017-11-03T03:06:46.428Z,5.10
2017-11-03T03:09:13.909Z,5.20
2017-11-03T03:11:41.414Z,5.30
2017-11-03T03:14:08.875Z,5.40
2017-11-03T03:16:36.353Z,5.50
2017-11-03T03:19:03.825Z,5.50
2017-11-03T03:21:32.092Z,5.60
2017-11-03T03:23:59.553Z,5.60
2017-11-03T03:26:27.105Z,5.60
2017-11-03T03:28:54.591Z,5.70
2017-11-03T03:31:22.830Z,5.80
2017-11-03T03:33:50.308Z,5.70
2017-11-03T03:36:17.782Z,5.80
2017-11-03T03:38:45.246Z,5.80
2017-11-03T03:41:12.744Z,5.80
2017-11-03T03:43:47.644Z,5.80
2017-11-03T03:46:15.097Z,5.90
2017-11-03T03:48:42.613Z,5.90
2017-11-03T03:51:10.092Z,6.00
2017-11-03T03:53:37.548Z,6.10
2017-11-03T03:56:05.784Z,6.20
2017-11-03T03:58:33.260Z,6.10
2017-11-03T04:01:00.748Z,6.20
2017-11-03T04:03:28.238Z,6.10
2017-11-03T04:05:55.706Z,6.20
2017-11-03T04:08:23.187Z,6.20
2017-11-03T04:10:50.658Z,6.10
2017-11-03T04:13:18.906Z,6.20
2017-11-03T04:15:46.380Z,6.10
2017-11-03T04:18:13.882Z,6.10
2017-11-03T04:20:41.380Z,6.10
2017-11-03T04:23:08.855Z,6.20
2017-11-03T04:25:36.329Z,6.00
2017-11-03T04:28:04.570Z,6.20
2017-11-03T04:30:32.045Z,6.00
2017-11-03T04:32:59.528Z,6.10
2017-11-03T04:35:27.053Z,6.20
2017-11-03T04:37:54.528Z,6.30
2017-11-03T04:40:22.763Z,6.40
2017-11-03T04:42:50.242Z,6.30
2017-11-03T04:45:17.696Z,6.30
2017-11-03T04:47:45.186Z,6.40
2017-11-03T04:50:12.677Z,6.40
2017-11-03T04:52:40.157Z,6.50
2017-11-03T04:55:07.618Z,6.50
2017-11-03T04:57:35.090Z,6.50
2017-11-03T05:00:02.692Z,6.60
2017-11-03T05:02:30.166Z,6.60
2017-11-03T05:04:57.634Z,6.50
2017-11-03T05:07:25.221Z,6.60
2017-11-03T05:09:53.472Z,6.60
2017-11-03T05:12:20.978Z,6.50
2017-11-03T05:14:49.216Z,6.60
2017-11-03T05:17:16.720Z,6.60
2017-11-03T05:19:44.194Z,6.60
2017-11-03T05:22:11.726Z,6.50
2017-11-03T05:24:39.920Z,6.50
2017-11-03T05:27:07.541Z,6.40
2017-11-03T05:29:35.019Z,6.50
2017-11-03T05:32:03.281Z,6.50
2017-11-03T05:34:31.551Z,6.50
2017-11-03T05:36:59.028Z,6.50
2017-11-03T05:39:27.291Z,6.60
2017-11-03T05:41:54.764Z,6.60
2017-11-03T05:44:23.029Z,6.60
2017-11-03T05:46:51.290Z,6.60
2017-11-03T05:49:18.778Z,6.70
2017-11-03T05:51:46.293Z,6.70
2017-11-03T05:54:13.774Z,6.70
2017-11-03T05:56:41.248Z,6.70
2017-11-03T05:59:08.748Z,6.80
2017-11-03T06:01:36.261Z,6.80
2017-11-03T06:04:04.534Z,6.80
2017-11-03T06:06:32.797Z,6.80
2017-11-03T06:09:01.065Z,6.80
2017-11-03T06:11:28.544Z,6.70
2017-11-03T06:13:56.054Z,6.80
2017-11-03T06:16:23.521Z,6.70
2017-11-03T06:18:51.034Z,6.80
2017-11-03T06:21:18.655Z,6.80
2017-11-03T06:23:46.130Z,6.80
2017-11-03T06:26:13.636Z,6.80
2017-11-03T06:28:41.104Z,6.90
2017-11-03T06:31:08.609Z,6.90
2017-11-03T06:33:36.875Z,6.90
2017-11-03T06:36:04.367Z,6.80
2017-11-03T06:38:31.848Z,6.90
2017-11-03T06:40:59.319Z,6.90
2017-11-03T06:43:26.809Z,6.90
2017-11-03T06:45:55.058Z,6.80
2017-11-03T06:48:22.571Z,6.80
2017-11-03T06:50:50.065Z,6.80
2017-11-03T06:53:17.536Z,6.70
2017-11-03T06:55:45.019Z,6.80
2017-11-03T06:58:13.274Z,6.80
2017-11-03T07:00:40.758Z,6.80
2017-11-03T07:03:08.267Z,6.80
2017-11-03T07:05:35.764Z,6.90
2017-11-03T07:08:03.231Z,6.90
2017-11-03T07:10:31.001Z,6.80
2017-11-03T07:12:58.456Z,6.70
2017-11-03T07:15:25.949Z,6.70
2017-11-03T07:17:53.426Z,6.70
2017-11-03T07:20:20.901Z,6.70
2017-11-03T07:22:56.873Z,6.70
2017-11-03T07:25:25.542Z,6.80
2017-11-03T07:27:54.430Z,6.70
2017-11-03T07:30:21.968Z,6.80
2017-11-03T07:32:49.420Z,6.80
2017-11-03T07:35:16.914Z,6.70
2017-11-03T07:37:44.381Z,6.70
2017-11-03T07:40:11.929Z,6.70
2017-11-03T07:42:40.306Z,6.60
2017-11-03T07:45:08.590Z,6.80
2017-11-03T07:47:36.086Z,6.70
2017-11-03T07:50:03.598Z,6.80
2017-11-03T07:52:31.873Z,6.70
2017-11-03T07:54:59.392Z,6.60
2017-11-03T07:57:27.628Z,6.50
2017-11-03T07:59:55.120Z,6.50
2017-11-03T08:02:22.860Z,6.60
2017-11-03T08:04:50.366Z,6.70
2017-11-03T08:07:17.843Z,6.70
2017-11-03T08:09:46.556Z,6.70
2017-11-03T08:12:14.047Z,6.70
2017-11-03T08:14:41.566Z,6.70
2017-11-03T08:17:09.804Z,6.70
2017-11-03T08:19:38.338Z,6.70
2017-11-03T08:22:06.392Z,6.70
2017-11-03T08:24:34.647Z,6.80
2017-11-03T08:27:02.924Z,6.80
2017-11-03T08:29:30.398Z,6.90
2017-11-03T08:31:57.908Z,6.90
2017-11-03T08:34:25.375Z,7.00
2017-11-03T08:36:52.988Z,7.10
2017-11-03T08:39:20.467Z,7.20
2017-11-03T08:41:48.172Z,7.30
2017-11-03T08:44:15.724Z,7.20
2017-11-03T08:46:43.195Z,7.30
2017-11-03T08:49:10.710Z,7.30
2017-11-03T08:51:38.215Z,7.30
2017-11-03T08:54:06.718Z,7.30
2017-11-03T08:56:34.984Z,7.20
2017-11-03T08:59:04.354Z,7.20
2017-11-03T09:01:31.892Z,7.20
2017-11-03T09:03:59.396Z,7.10
2017-11-03T09:06:27.679Z,7.20
2017-11-03T09:08:55.944Z,7.50
2017-11-03T09:11:24.532Z,7.70
2017-11-03T09:13:52.825Z,7.80
2017-11-03T09:16:20.360Z,7.80
2017-11-03T09:18:48.640Z,8.10
2017-11-03T09:21:16.905Z,8.10
2017-11-03T09:23:45.163Z,8.20
2017-11-03T09:26:12.650Z,8.20
2017-11-03T09:28:40.157Z,8.20
2017-11-03T09:31:08.342Z,8.30
2017-11-03T09:33:35.841Z,8.40
2017-11-03T09:36:04.835Z,8.40
2017-11-03T09:38:32.363Z,8.30
2017-11-03T09:40:59.844Z,8.30
2017-11-03T09:43:28.095Z,8.40
2017-11-03T09:45:55.843Z,8.30
2017-11-03T09:48:23.332Z,8.30
2017-11-03T09:50:50.826Z,8.20
2017-11-03T09:53:18.293Z,8.20
2017-11-03T09:55:45.735Z,8.20
2017-11-03T09:58:13.222Z,8.10
2017-11-03T10:00:40.697Z,8.10
2017-11-03T10:03:08.453Z,8.50
2017-11-03T10:05:35.958Z,8.70
2017-11-03T10:08:04.195Z,9.40
2017-11-03T10:10:31.733Z,9.30
2017-11-03T10:12:59.223Z,9.60
2017-11-03T10:15:26.717Z,9.50
2017-11-03T10:17:54.971Z,9.60
2017-11-03T10:20:22.525Z,9.60
2017-11-03T10:22:50.012Z,9.70
2017-11-03T10:25:17.471Z,9.60
2017-11-03T10:27:44.992Z,9.70
2017-11-03T10:30:12.454Z,9.80
2017-11-03T10:32:40.232Z,10.00
2017-11-03T10:35:07.751Z,10.40
2017-11-03T10:37:35.225Z,10.80
2017-11-03T10:40:02.712Z,11.00
2017-11-03T10:42:30.478Z,11.10
2017-11-03T10:44:58.759Z,10.70
2017-11-03T10:47:26.322Z,10.70
2017-11-03T10:49:54.152Z,10.50
2017-11-03T10:52:21.748Z,10.50
2017-11-03T10:54:49.321Z,10.60
2017-11-03T10:57:17.006Z,10.70
2017-11-03T10:59:44.571Z,11.00
2017-11-03T11:02:12.096Z,11.10
2017-11-03T11:04:40.199Z,11.20
2017-11-03T11:07:08.129Z,11.10
2017-11-03T11:09:35.823Z,10.90
2017-11-03T11:12:03.394Z,10.50
2017-11-03T11:14:31.118Z,10.40
2017-11-03T11:16:58.768Z,10.20
2017-11-03T11:19:27.030Z,10.30
2017-11-03T11:21:54.504Z,10.30
2017-11-03T11:24:22.767Z,10.90
2017-11-03T11:26:52.994Z,10.40
2017-11-03T11:29:20.510Z,10.40
2017-11-03T11:31:48.805Z,10.50
2017-11-03T11:34:16.275Z,10.50
2017-11-03T11:36:43.749Z,10.60
2017-11-03T11:39:11.216Z,10.70
2017-11-03T11:41:39.177Z,10.80
2017-11-03T11:44:06.731Z,10.90
2017-11-03T11:46:34.970Z,11.00
2017-11-03T11:49:02.454Z,10.90
2017-11-03T11:51:29.935Z,11.00
2017-11-03T11:53:57.499Z,11.00
2017-11-03T11:56:24.982Z,10.90
2017-11-03T11:58:52.808Z,10.90
2017-11-03T12:01:20.303Z,11.30
2017-11-03T12:03:47.776Z,11.30
2017-11-03T12:06:15.269Z,11.40
2017-11-03T12:08:43.563Z,11.60
2017-11-03T12:11:11.078Z,11.60
2017-11-03T12:13:38.578Z,12.00
2017-11-03T12:16:06.839Z,12.60
2017-11-03T12:18:35.114Z,12.70
2017-11-03T12:21:03.370Z,12.60
2017-11-03T12:23:30.855Z,12.60
2017-11-03T12:25:59.118Z,12.40
2017-11-03T12:28:26.678Z,12.40
2017-11-03T12:30:54.197Z,12.50
2017-11-03T12:33:22.046Z,12.70
2017-11-03T12:35:49.516Z,12.70
2017-11-03T12:38:16.977Z,12.70
2017-11-03T12:40:44.468Z,12.80
2017-11-03T12:43:11.938Z,12.80
2017-11-03T12:45:39.444Z,12.90
2017-11-03T12:48:06.919Z,12.90
2017-11-03T12:50:34.390Z,13.00
2017-11-03T12:53:01.874Z,13.20
2017-11-03T12:55:29.368Z,13.20
2017-11-03T12:57:57.692Z,13.40
2017-11-03T13:00:25.948Z,13.30
2017-11-03T13:02:53.438Z,13.20
2017-11-03T13:05:21.710Z,12.70
2017-11-03T13:07:49.958Z,12.40
2017-11-03T13:10:17.730Z,12.40
2017-11-03T13:12:45.232Z,12.10
2017-11-03T13:15:12.854Z,12.00
2017-11-03T13:17:40.392Z,12.00
2017-11-03T13:20:08.704Z,12.00
2017-11-03T13:22:37.286Z,12.10
2017-11-03T13:25:05.624Z,12.10
2017-11-03T13:27:33.146Z,12.10
2017-11-03T13:30:00.877Z,12.20
2017-11-03T13:32:28.374Z,12.20
2017-11-03T13:34:56.212Z,12.20
2017-11-03T13:37:23.689Z,12.30
2017-11-03T13:39:51.442Z,12.30
2017-11-03T13:42:18.957Z,12.40
2017-11-03T13:44:46.429Z,12.40
2017-11-03T13:47:13.938Z,12.50
2017-11-03T13:49:41.412Z,12.60
2017-11-03T13:52:08.884Z,12.60
2017-11-03T13:54:36.397Z,12.70
2017-11-03T13:57:03.909Z,12.70
2017-11-03T13:59:31.409Z,12.50
2017-11-03T14:01:59.641Z,12.40
2017-11-03T14:04:27.125Z,12.40
2017-11-03T14:06:54.621Z,12.30
2017-11-03T14:09:22.109Z,12.30
2017-11-03T14:11:49.873Z,12.20
2017-11-03T14:14:17.377Z,12.30
2017-11-03T14:16:44.848Z,12.40
2017-11-03T14:19:12.310Z,12.40
2017-11-03T14:21:39.827Z,12.60
2017-11-03T14:24:07.619Z,12.50
2017-11-03T14:26:35.855Z,12.50
2017-11-03T14:29:03.337Z,12.50
2017-11-03T14:31:30.842Z,12.60
2017-11-03T14:33:58.319Z,12.50
2017-11-03T14:36:25.835Z,12.40
2017-11-03T14:38:53.341Z,12.40
2017-11-03T14:41:21.219Z,12.20
2017-11-03T14:43:48.712Z,12.20
2017-11-03T14:46:16.170Z,12.10
2017-11-03T14:48:43.694Z,12.10
2017-11-03T14:51:11.172Z,12.10
2017-11-03T14:53:39.434Z,12.10
2017-11-03T14:56:07.687Z,12.10
2017-11-03T14:58:35.467Z,12.20
2017-11-03T15:01:02.961Z,12.00
2017-11-03T15:03:30.435Z,12.00
2017-11-03T15:05:59.884Z,12.00
2017-11-03T15:08:27.395Z,11.90
2017-11-03T15:10:55.325Z,11.80
2017-11-03T15:13:23.756Z,11.70
2017-11-03T15:15:51.234Z,11.70
2017-11-03T15:18:18.724Z,11.70
2017-11-03T15:20:47.106Z,11.70
2017-11-03T15:23:14.869Z,11.70
2017-11-03T15:25:42.344Z,11.70
2017-11-03T15:28:09.875Z,11.60
2017-11-03T15:30:37.425Z,11.50
2017-11-03T15:33:04.913Z,11.50
2017-11-03T15:35:32.483Z,11.40
2017-11-03T15:37:59.983Z,11.30
2017-11-03T15:40:27.457Z,11.20
2017-11-03T15:42:54.947Z,11.10
2017-11-03T15:45:22.424Z,11.00
2017-11-03T15:47:49.921Z,11.00
2017-11-03T15:50:17.408Z,10.80
2017-11-03T15:52:44.911Z,10.60
2017-11-03T15:55:12.404Z,10.50
2017-11-03T15:57:39.898Z,10.40
2017-11-03T16:00:10.060Z,10.30
2017-11-03T16:02:37.642Z,10.20
2017-11-03T16:05:05.121Z,10.20
2017-11-03T16:07:32.688Z,10.10
2017-11-03T16:10:00.219Z,10.00
2017-11-03T16:12:27.753Z,9.90
2017-11-03T16:14:55.235Z,9.80
2017-11-03T16:17:22.705Z,9.70
2017-11-03T16:19:50.311Z,9.60
2017-11-03T16:22:17.853Z,9.50
2017-11-03T16:24:45.704Z,9.40
2017-11-03T16:27:13.210Z,9.20
2017-11-03T16:29:40.886Z,9.10
2017-11-03T16:32:08.383Z,9.10
2017-11-03T16:34:35.866Z,9.00
2017-11-03T16:37:03.411Z,8.90
2017-11-03T16:39:31.017Z,8.90
2017-11-03T16:41:58.497Z,8.80
2017-11-03T16:44:25.996Z,8.80
2017-11-03T16:46:53.480Z,8.70
2017-11-03T16:49:21.284Z,8.70
2017-11-03T16:51:48.799Z,8.60
2017-11-03T16:54:16.681Z,8.30
2017-11-03T16:56:44.183Z,8.10
2017-11-03T16:59:11.655Z,8.00
2017-11-03T17:01:40.224Z,7.90
2017-11-03T17:04:07.771Z,7.80
2017-11-03T17:06:35.265Z,7.70
2017-11-03T17:09:02.769Z,7.70
2017-11-03T17:11:30.276Z,7.50
2017-11-03T17:13:57.758Z,7.40
2017-11-03T17:16:25.296Z,7.40
2017-11-03T17:18:52.777Z,7.30
2017-11-03T17:21:20.283Z,7.40
2017-11-03T17:23:47.747Z,7.20
2017-11-03T17:26:15.276Z,7.10
2017-11-03T17:28:43.016Z,7.20
2017-11-03T17:31:10.511Z,7.20
2017-11-03T17:33:38.031Z,7.20
2017-11-03T17:36:05.567Z,7.20
2017-11-03T17:38:33.643Z,7.10
2017-11-03T17:41:02.956Z,7.00
2017-11-03T17:43:30.514Z,7.00
2017-11-03T17:45:58.113Z,6.90
2017-11-03T17:48:25.903Z,6.90
2017-11-03T17:50:53.803Z,6.80
2017-11-03T17:53:21.440Z,6.80
2017-11-03T17:55:48.979Z,6.80
2017-11-03T17:58:16.968Z,6.70
2017-11-03T18:00:44.529Z,6.70
2017-11-03T18:03:12.099Z,6.70
2017-11-03T18:05:40.018Z,6.70
2017-11-03T18:08:07.709Z,6.70
2017-11-03T18:10:37.341Z,6.80
2017-11-03T18:13:04.908Z,6.80
2017-11-03T18:15:32.459Z,6.80
2017-11-03T18:17:59.961Z,6.90
2017-11-03T18:20:28.261Z,6.90
2017-11-03T18:22:56.503Z,7.00
2017-11-03T18:25:24.013Z,7.00
2017-11-03T18:27:51.553Z,7.10
2017-11-03T18:30:19.346Z,6.90
2017-11-03T18:32:46.887Z,7.00
2017-11-03T18:35:14.356Z,6.90
2017-11-03T18:37:41.890Z,7.00
2017-11-03T18:40:09.581Z,7.00
2017-11-03T18:42:37.085Z,6.90
2017-11-03T18:45:04.577Z,6.80
2017-11-03T18:47:32.046Z,7.00
2017-11-03T18:49:59.766Z,7.00
2017-11-03T18:52:27.250Z,7.00
2017-11-03T18:54:54.789Z,7.00
2017-11-03T18:57:23.143Z,7.00
2017-11-03T18:59:50.628Z,7.00
2017-11-03T19:02:18.168Z,6.90
2017-11-03T19:04:46.429Z,6.70
2017-11-03T19:07:13.907Z,6.60
2017-11-03T19:09:41.406Z,6.70
2017-11-03T19:12:08.913Z,6.70
2017-11-03T19:14:36.422Z,6.70
2017-11-03T19:17:03.914Z,6.70
2017-11-03T19:19:31.729Z,6.70
2017-11-03T19:22:00.387Z,6.60
2017-11-03T19:24:28.075Z,6.50
2017-11-03T19:26:55.620Z,6.60
2017-11-03T19:29:23.921Z,6.40
2017-11-03T19:31:51.435Z,6.40
2017-11-03T19:34:19.242Z,6.30
2017-11-03T19:36:46.749Z,6.10
2017-11-03T19:39:14.421Z,6.10
2017-11-03T19:41:41.911Z,6.00
2017-11-03T19:44:09.493Z,6.00
2017-11-03T19:46:36.952Z,5.80
2017-11-03T19:49:04.437Z,5.80
2017-11-03T19:51:31.988Z,5.70
2017-11-03T19:53:59.504Z,5.60
2017-11-03T19:56:28.085Z,5.60
2017-11-03T19:58:55.574Z,5.60
2017-11-03T20:01:23.065Z,5.60
2017-11-03T20:03:50.584Z,5.60
2017-11-03T20:06:18.126Z,5.50
2017-11-03T20:08:45.936Z,5.50
2017-11-03T20:11:13.518Z,5.50
2017-11-03T20:13:41.057Z,5.40
2017-11-03T20:16:09.535Z,5.30
2017-11-03T20:18:37.093Z,5.20
2017-11-03T20:21:04.585Z,5.10
2017-11-03T20:23:33.031Z,5.00
2017-11-03T20:26:00.542Z,5.00
2017-11-03T20:28:28.083Z,4.90
2017-11-03T20:30:56.352Z,4.90
2017-11-03T20:33:23.976Z,4.90
2017-11-03T20:35:51.511Z,5.00
2017-11-03T20:38:18.979Z,4.90
2017-11-03T20:40:46.468Z,4.90
2017-11-03T20:43:14.178Z,4.90
2017-11-03T20:45:41.681Z,5.00
2017-11-03T20:48:09.194Z,4.90
2017-11-03T20:50:37.449Z,4.80
2017-11-03T20:53:05.757Z,4.70
2017-11-03T20:55:33.379Z,4.70
2017-11-03T20:58:00.970Z,4.60
2017-11-03T21:00:28.516Z,4.60
2017-11-03T21:02:56.121Z,4.60
2017-11-03T21:05:25.230Z,4.50
2017-11-03T21:07:54.484Z,4.50
2017-11-03T21:10:22.102Z,4.40
2017-11-03T21:12:49.602Z,4.60
2017-11-03T21:15:17.912Z,4.30
2017-11-03T21:17:46.199Z,4.30
2017-11-03T21:20:13.817Z,4.30
2017-11-03T21:22:41.447Z,4.30
2017-11-03T21:25:09.750Z,4.20
2017-11-03T21:27:39.042Z,4.20
2017-11-03T21:30:07.336Z,4.20
2017-11-03T21:32:35.216Z,4.20
2017-11-03T21:35:02.767Z,4.20
2017-11-03T21:37:30.399Z,4.20
2017-11-03T21:39:58.721Z,4.20
2017-11-03T21:42:26.339Z,4.10
2017-11-03T21:44:53.825Z,4.20
2017-11-03T21:47:21.427Z,4.20
2017-11-03T21:49:49.021Z,4.20
2017-11-03T21:52:17.424Z,4.40
2017-11-03T21:54:44.990Z,4.40
2017-11-03T21:57:12.646Z,4.50
2017-11-03T21:59:40.344Z,4.50
2017-11-03T22:02:08.046Z,4.60
2017-11-03T22:04:35.597Z,4.70
2017-11-03T22:07:04.376Z,4.80
2017-11-03T22:09:32.670Z,4.80
2017-11-03T22:12:01.021Z,4.80
2017-11-03T22:14:28.684Z,4.80
2017-11-03T22:16:56.296Z,4.80
2017-11-03T22:19:23.847Z,4.80
2017-11-03T22:21:51.576Z,4.80
2017-11-03T22:24:19.557Z,4.70
2017-11-03T22:26:47.183Z,4.70
2017-11-03T22:29:14.923Z,4.70
2017-11-03T22:31:42.590Z,4.70
2017-11-03T22:34:10.253Z,4.60
2017-11-03T22:36:37.917Z,4.50
2017-11-03T22:39:09.118Z,4.50
2017-11-03T22:41:37.025Z,4.40
2017-11-03T22:44:04.640Z,4.40
2017-11-03T22:46:32.335Z,4.40
2017-11-03T22:49:00.005Z,4.50
2017-11-03T22:51:27.501Z,4.40
2017-11-03T22:53:54.988Z,4.40
2017-11-03T22:56:22.526Z,4.40
2017-11-03T22:58:50.090Z,4.30
2017-11-03T23:01:18.111Z,4.40
2017-11-03T23:03:45.604Z,4.40
2017-11-03T23:06:13.092Z,4.30
2017-11-03T23:08:40.616Z,4.20
2017-11-03T23:11:13.422Z,4.20
2017-11-03T23:13:41.661Z,4.00
2017-11-03T23:16:09.321Z,4.10
2017-11-03T23:18:36.818Z,4.10
2017-11-03T23:21:04.529Z,4.20
2017-11-03T23:23:32.013Z,4.20
2017-11-03T23:25:59.496Z,4.10
2017-11-03T23:28:27.831Z,4.10
2017-11-03T23:30:55.289Z,4.10
2017-11-03T23:33:23.232Z,4.10
2017-11-03T23:35:50.712Z,4.10
2017-11-03T23:38:18.215Z,4.10
2017-11-03T23:40:46.540Z,4.10
2017-11-03T23:43:14.018Z,4.10
2017-11-03T23:45:41.535Z,4.10
2017-11-03T23:48:10.303Z,4.10
2017-11-03T23:50:38.277Z,4.20
2017-11-03T23:53:05.943Z,4.20
2017-11-03T23:55:33.435Z,4.20
2017-11-03T23:58:01.010Z,4.30
